Flight Track Log - Related Links

Times and Time Zones

All times are in EDT time to prevent confusion due to time zone crossing. See the AAL963 flight status page for this flight to view local times or setup timezone preferences in your user account.

Time Position Orientation Groundspeed Altitude Reporting Facility
EDT Latitude Longitude Course Direction KTS MPH feet Rate Location/Type
Mon 09:51:13 PM 33.0151 -97.0844 332° Northwest 248 285 4,500  Level FlightAware ADS-B (LKPR / PRG)
Mon 09:52:13 PM 33.0390 -97.1598 265° West 276 318 6,800 2,557 Climbing FlightAware ADS-B (LKPR / PRG)
Mon 09:53:15 PM 33.0095 -97.2349 224° Southwest 288 331 9,700 2,050 Climbing FlightAware ADS-B (LKPR / PRG)
Mon 09:54:13 PM 32.9445 -97.3070 209° Southwest 348 400 10,900 1,765 Climbing FlightAware ADS-B (LKPR / PRG)
Mon 09:55:14 PM 32.8357 -97.3122 161° South 406 467 13,200 2,083 Climbing FlightAware ADS-B (LKPR / PRG)
Mon 09:56:14 PM 32.7327 -97.2474 144° Southeast 443 510 15,100 2,000 Climbing FlightAware ADS-B (LKPR / PRG)
Mon 09:57:14 PM 32.6401 -97.1515 138° Southeast 464 534 17,200 2,256 Climbing FlightAware ADS-B (LKPR / PRG)
Mon 09:58:11 PM 32.5446 -97.0598 142° Southeast 473 544 19,500 2,274 Climbing FlightAware ADS-B (LKPR / PRG)
Mon 09:58:49 PM 32.4775 -96.9968 141° Southeast 477 549 20,800 2,032 Climbing FlightAware ADS-B (KHPY)
Mon 09:59:13 PM 32.4443 -96.9657 142° Southeast 480 552 21,600 1,800 Climbing FlightAware ADS-B (LKPR / PRG)
Mon 09:59:19 PM 32.4223 -96.9450 141° Southeast 483 556 21,700 2,870 Climbing FlightAware ADS-B (KHPY)
Mon 09:59:59 PM 32.3546 -96.8810 141° Southeast 468 539 23,800 2,556 Climbing FlightAware ADS-B (KHPY)
Mon 10:00:13 PM 32.3314 -96.8592 141° Southeast 471 542 24,000 667 Climbing FlightAware ADS-B (LKPR / PRG)
Mon 10:00:26 PM 32.3079 -96.8386 146° Southeast 481 554 24,100 522 Climbing FlightAware ADS-B (KHPY)
Mon 10:00:59 PM 32.2373 -96.7975 160° South 493 567 24,400 1,143 Climbing FlightAware ADS-B (KHPY)
Mon 10:01:29 PM 32.1757 -96.7740 161° South 495 570 25,300 1,672 Climbing FlightAware ADS-B (KHPY)
Mon 10:02:00 PM 32.1063 -96.7475 162° South 499 574 26,100 1,588 Climbing FlightAware ADS-B (KHPY)
Mon 10:02:37 PM 32.0230 -96.7160 162° South 505 581 27,100 1,970 Climbing FlightAware ADS-B
Mon 10:03:07 PM 31.9576 -96.6912 162° South 499 574 28,300 1,579 Climbing FlightAware ADS-B
Mon 10:03:34 PM 31.9192 -96.6767 162° South 504 580 28,600 1,100 Climbing FlightAware ADS-B
Mon 10:04:07 PM 31.8200 -96.6379 160° South 516 594 29,400 1,429 Climbing FlightAware ADS-B
Mon 10:04:37 PM 31.7552 -96.6108 160° South 520 598 30,100 1,500 Climbing FlightAware ADS-B
Mon 10:05:07 PM 31.6854 -96.5817 160° South 508 585 30,900 857 Climbing FlightAware ADS-B
Mon 10:05:40 PM 31.6147 -96.5527 160° South 508 585 31,000 95 Climbing FlightAware ADS-B (KHPY)
Mon 10:06:10 PM 31.5481 -96.5258 160° South 512 589 31,000  Level FlightAware ADS-B (KHPY)
Mon 10:06:39 PM 31.4832 -96.4998 161° South 510 587 31,000  Level FlightAware ADS-B (KHPY)
Mon 10:07:09 PM 31.4145 -96.4743 162° South 508 585 31,000  Level FlightAware ADS-B (KHPY)
Mon 10:07:39 PM 31.3453 -96.4489 162° South 508 585 31,000  Level FlightAware ADS-B (KHPY)
Mon 10:08:09 PM 31.2770 -96.4237 162° South 507 583 31,000  Level FlightAware ADS-B (KHPY)
Mon 10:08:39 PM 31.2100 -96.3975 161° South 507 583 31,000  Level FlightAware ADS-B (KHPY)
Mon 10:09:09 PM 31.1521 -96.3534 161° South 507 583 31,000  Level FlightAware ADS-B (KHPY)
Mon 10:09:20 PM 31.1327 -96.3298 130° Southeast 555 639 31,000  Level FlightAware ADS-B (KHPY)
Mon 10:10:15 PM 31.0477 -96.1932 125° Southeast 564 649 31,000  Level FlightAware ADS-B (KHPY)
Mon 10:10:45 PM 31.0027 -96.1191 125° Southeast 566 651 31,000  Level FlightAware ADS-B (KHPY)
Mon 10:11:14 PM 30.9580 -96.0456 125° Southeast 567 652 31,000  Level FlightAware ADS-B (KHPY)
Mon 10:11:45 PM 30.9124 -95.9712 125° Southeast 567 652 31,000  Level FlightAware ADS-B (KHPY)
Mon 10:12:15 PM 30.8658 -95.8956 125° Southeast 566 651 31,000  Level FlightAware ADS-B (KHPY)
Mon 10:12:44 PM 30.8194 -95.8207 125° Southeast 564 649 31,000  Level FlightAware ADS-B (KHPY)
Mon 10:13:14 PM 30.7740 -95.7478 125° Southeast 563 648 31,000  Level FlightAware ADS-B (KHPY)
Mon 10:13:45 PM 30.7279 -95.6739 125° Southeast 561 646 31,000  Level FlightAware ADS-B (KHPY)
Mon 10:14:15 PM 30.6825 -95.6013 125° Southeast 555 639 31,000  Level FlightAware ADS-B (KHPY)
Mon 10:14:52 PM 30.6232 -95.5147 130° Southeast 548 631 31,000  Level FlightAware ADS-B
Mon 10:15:22 PM 30.5713 -95.4490 134° Southeast 542 624 31,000  Level FlightAware ADS-B
Mon 10:16:13 PM 30.4805 -95.3496 137° Southeast 540 621 31,000  Level FlightAware ADS-B
Mon 10:16:42 PM 30.4256 -95.2915 137° Southeast 544 626 31,000  Level FlightAware ADS-B
Mon 10:17:12 PM 30.3710 -95.2333 137° Southeast 546 628 31,000  Level FlightAware ADS-B
Mon 10:17:42 PM 30.3183 -95.1773 137° Southeast 547 629 31,000  Level FlightAware ADS-B
Mon 10:18:13 PM 30.2581 -95.1132 137° Southeast 547 629 31,000  Level FlightAware ADS-B
Mon 10:18:43 PM 30.2010 -95.0525 137° Southeast 546 628 31,000  Level FlightAware ADS-B
Mon 10:19:12 PM 30.1461 -94.9942 137° Southeast 547 629 31,000  Level FlightAware ADS-B
Mon 10:19:42 PM 30.0900 -94.9346 137° Southeast 547 629 31,000  Level FlightAware ADS-B
Mon 10:20:13 PM 30.0338 -94.8752 137° Southeast 546 628 31,000  Level FlightAware ADS-B
Mon 10:20:42 PM 29.9781 -94.8163 137° Southeast 547 629 31,000  Level FlightAware ADS-B
Mon 10:21:12 PM 29.9222 -94.7575 137° Southeast 547 629 31,000  Level FlightAware ADS-B
Mon 10:21:43 PM 29.8647 -94.6970 137° Southeast 548 631 31,000  Level FlightAware ADS-B
Mon 10:22:12 PM 29.8101 -94.6397 137° Southeast 548 631 31,000  Level FlightAware ADS-B
Mon 10:22:43 PM 29.7533 -94.5800 137° Southeast 547 629 31,000  Level FlightAware ADS-B
Mon 10:23:12 PM 29.6981 -94.5223 137° Southeast 545 627 31,000  Level FlightAware ADS-B
Mon 10:23:43 PM 29.6414 -94.4631 137° Southeast 544 626 31,000  Level FlightAware ADS-B
Mon 10:24:09 PM 29.5980 -94.4177 137° Southeast 543 625 31,000  Level FlightAware ADS-B
Mon 10:25:43 PM 29.4172 -94.2292 137° Southeast 542 624 31,000  Level FlightAware ADS-B
Mon 10:26:13 PM 29.3699 -94.1795 137° Southeast 541 623 31,000  Level FlightAware ADS-B
Mon 10:26:42 PM 29.3115 -94.1183 137° Southeast 542 624 31,000  Level FlightAware ADS-B
Mon 10:27:13 PM 29.2506 -94.0548 137° Southeast 543 625 31,000  Level FlightAware ADS-B
Mon 10:27:43 PM 29.1978 -93.9997 137° Southeast 542 624 31,000  Level FlightAware ADS-B
Mon 10:28:07 PM 29.1722 -93.9730 137° Southeast 542 624 31,000  Level FlightAware ADS-B
Mon 10:28:26 PM 29.1148 -93.9133 137° Southeast 542 624 31,000  Level FlightAware ADS-B
Mon 10:29:43 PM 28.9897 -93.7822 137° Southeast 539 620 31,000 -43 Level Houston Center
Mon 10:30:44 PM 28.8781 -93.6672 138° Southeast 541 623 30,900  Descending Houston Center
Mon 10:31:45 PM 28.7583 -93.5453 138° Southeast 541 623 31,000 49 Climbing Houston Center
Mon 10:32:46 PM 28.6553 -93.4372 137° Southeast 541 623 31,000 49 Level Houston Center
Mon 10:33:47 PM 28.5347 -93.3136 138° Southeast 542 624 31,100 541 Climbing Houston Center
Mon 10:34:48 PM 28.4075 -93.1847 138° Southeast 544 626 32,100 878 Climbing Houston Center
Mon 10:35:50 PM 28.2919 -93.0683 138° Southeast 551 634 32,900 390 Climbing Houston Center
Mon 10:36:51 PM 28.1761 -92.9508 138° Southeast 558 642 32,900 49 Level Houston Center
Mon 10:37:52 PM 28.0603 -92.8325 138° Southeast 558 642 33,000  Climbing Houston Center
Mon 10:38:53 PM 27.9444 -92.7156 138° Southeast 559 643 32,900 -49 Descending Houston Center
Mon 10:39:54 PM 27.8275 -92.5981 138° Southeast 560 644 32,900  Level Houston Center
Mon 10:40:55 PM 27.7106 -92.4817 139° Southeast 561 646 32,900  Level Houston Center
Mon 10:41:57 PM 27.5950 -92.3644 138° Southeast 561 646 32,900  Level Houston Center
Mon 10:42:58 PM 27.4778 -92.2497 139° Southeast 559 643 32,900 49 Level Houston Center
Mon 10:43:59 PM 27.3622 -92.1367 139° Southeast 555 639 33,000  Climbing Houston Center
Mon 10:45:00 PM 27.2236 -91.9975 138° Southeast 555 639 32,900  Descending Houston Center
Mon 10:46:02 PM 27.1028 -91.8892 141° Southeast 556 640 33,000 Climbing Houston Center
Mon 11:13:12 PM 23.7476 -89.2842 145° Southeast 532 612 33,000  Level FlightAware ADS-B
Mon 11:15:44 PM 23.4268 -89.0438 145° Southeast 526 605 33,000  Level FlightAware ADS-B
Mon 11:16:16 PM 23.4046 -89.0272 145° Southeast 526 605 33,000  Level FlightAware ADS-B
Mon 11:16:45 PM 23.3170 -88.9618 145° Southeast 527 606 33,000  Level FlightAware ADS-B
Mon 11:17:17 PM 23.2381 -88.9031 145° Southeast 527 606 33,000  Level FlightAware ADS-B
Mon 11:17:47 PM 23.1755 -88.8564 145° Southeast 527 606 33,000  Level FlightAware ADS-B
Mon 11:18:16 PM 23.1188 -88.8142 145° Southeast 526 605 33,000  Level FlightAware ADS-B
Mon 11:18:47 PM 23.0567 -88.7681 145° Southeast 527 606 33,000  Level FlightAware ADS-B
Mon 11:19:15 PM 23.0010 -88.7268 145° Southeast 525 604 33,000  Level FlightAware ADS-B
Mon 11:19:47 PM 22.9369 -88.6794 145° Southeast 524 603 33,000  Level FlightAware ADS-B
Mon 11:20:14 PM 22.8803 -88.6377 145° Southeast 522 601 33,000  Level FlightAware ADS-B
Mon 11:20:45 PM 22.8206 -88.5935 145° Southeast 521 600 33,000  Level FlightAware ADS-B
Mon 11:21:15 PM 22.7591 -88.5482 145° Southeast 520 598 33,000  Level FlightAware ADS-B
Mon 11:21:46 PM 22.7212 -88.5203 145° Southeast 523 602 33,000  Level FlightAware ADS-B
Mon 11:22:16 PM 22.6374 -88.4584 144° Southeast 523 602 33,000  Level FlightAware ADS-B
Mon 11:22:52 PM 22.5700 -88.4003 138° Southeast 529 609 33,000  Level FlightAware ADS-B
Mon 11:23:32 PM 22.4995 -88.3283 136° Southeast 531 611 33,000  Level FlightAware ADS-B
Mon 11:24:00 PM 22.4483 -88.2755 136° Southeast 529 609 33,000  Level FlightAware ADS-B
Mon 11:24:32 PM 22.3965 -88.2221 136° Southeast 529 609 33,000  Level FlightAware ADS-B
Mon 11:25:03 PM 22.3383 -88.1623 136° Southeast 529 609 33,000  Level FlightAware ADS-B
Mon 11:25:30 PM 22.2897 -88.1124 136° Southeast 530 610 33,000  Level FlightAware ADS-B
Mon 11:26:00 PM 22.2357 -88.0571 136° Southeast 530 610 33,000  Level FlightAware ADS-B
Mon 11:26:31 PM 22.1823 -88.0025 136° Southeast 531 611 33,000  Level FlightAware ADS-B
Mon 11:27:02 PM 22.1267 -87.9457 136° Southeast 533 613 33,000  Level FlightAware ADS-B
Mon 11:27:31 PM 22.0743 -87.8923 136° Southeast 535 616 33,000  Level FlightAware ADS-B
Mon 11:28:02 PM 22.0171 -87.8338 136° Southeast 538 619 33,000  Level FlightAware ADS-B
Mon 11:28:31 PM 21.9665 -87.7823 136° Southeast 542 624 33,000  Level FlightAware ADS-B
Mon 11:29:00 PM 21.9123 -87.7271 136° Southeast 544 626 33,000  Level FlightAware ADS-B
Mon 11:29:30 PM 21.8565 -87.6705 136° Southeast 543 625 33,000  Level FlightAware ADS-B
Mon 11:30:01 PM 21.8003 -87.6149 137° Southeast 540 621 33,000  Level FlightAware ADS-B
Mon 11:30:31 PM 21.7442 -87.5602 137° Southeast 538 619 33,000  Level FlightAware ADS-B
Mon 11:31:03 PM 21.6868 -87.5042 137° Southeast 536 617 33,000  Level FlightAware ADS-B
Mon 11:31:32 PM 21.6330 -87.4515 137° Southeast 535 616 33,000  Level FlightAware ADS-B
Mon 11:32:01 PM 21.5804 -87.4000 137° Southeast 534 615 33,000  Level FlightAware ADS-B
Mon 11:32:31 PM 21.5259 -87.3467 137° Southeast 534 615 33,000  Level FlightAware ADS-B
Mon 11:33:00 PM 21.4724 -87.2944 137° Southeast 532 612 33,000  Level FlightAware ADS-B
Mon 11:33:32 PM 21.4144 -87.2376 137° Southeast 532 612 33,000  Level FlightAware ADS-B
Mon 11:34:00 PM 21.3638 -87.1882 137° Southeast 534 615 33,000  Level FlightAware ADS-B
Mon 11:34:30 PM 21.3080 -87.1338 137° Southeast 532 612 33,000  Level FlightAware ADS-B
Mon 11:35:02 PM 21.2511 -87.0784 137° Southeast 531 611 33,000  Level FlightAware ADS-B
Mon 11:35:30 PM 21.1991 -87.0278 137° Southeast 532 612 33,000  Level FlightAware ADS-B
Mon 11:36:01 PM 21.1444 -86.9746 137° Southeast 532 612 33,000  Level FlightAware ADS-B
Mon 11:36:32 PM 21.0865 -86.9185 137° Southeast 532 612 33,000  Level FlightAware ADS-B
Mon 11:37:01 PM 21.0346 -86.8682 137° Southeast 532 612 33,000  Level FlightAware ADS-B
Mon 11:37:31 PM 20.9813 -86.8164 137° Southeast 532 612 33,000  Level FlightAware ADS-B
Mon 11:38:00 PM 20.9263 -86.7628 137° Southeast 532 612 33,000  Level FlightAware ADS-B
Mon 11:38:31 PM 20.8697 -86.7079 137° Southeast 532 612 33,000  Level FlightAware ADS-B
Mon 11:39:02 PM 20.8149 -86.6547 137° Southeast 533 613 33,000  Level FlightAware ADS-B
Mon 11:39:31 PM 20.7613 -86.6027 137° Southeast 533 613 33,000  Level FlightAware ADS-B
Mon 11:40:02 PM 20.7057 -86.5488 137° Southeast 532 612 33,000  Level FlightAware ADS-B
Mon 11:40:32 PM 20.6494 -86.4943 137° Southeast 533 613 33,000  Level FlightAware ADS-B
Mon 11:41:01 PM 20.5970 -86.4438 137° Southeast 532 612 33,000  Level FlightAware ADS-B
Mon 11:41:30 PM 20.5445 -86.3931 137° Southeast 533 613 33,000  Level FlightAware ADS-B
Mon 11:42:01 PM 20.4885 -86.3391 137° Southeast 532 612 33,000  Level FlightAware ADS-B
Mon 11:42:31 PM 20.4336 -86.2863 137° Southeast 531 611 33,000  Level FlightAware ADS-B
Mon 11:43:02 PM 20.3763 -86.2310 137° Southeast 530 610 33,000  Level FlightAware ADS-B
Mon 11:43:32 PM 20.3223 -86.1792 137° Southeast 530 610 33,000  Level FlightAware ADS-B
Mon 11:44:01 PM 20.2705 -86.1293 137° Southeast 528 608 33,000  Level FlightAware ADS-B
Mon 11:44:31 PM 20.2161 -86.0772 137° Southeast 527 606 33,000  Level FlightAware ADS-B
Mon 11:45:03 PM 20.1581 -86.0216 137° Southeast 527 606 33,000  Level FlightAware ADS-B
Mon 11:45:30 PM 20.1087 -85.9744 137° Southeast 527 606 33,000  Level FlightAware ADS-B
Mon 11:46:01 PM 20.0520 -85.9201 137° Southeast 528 608 33,000  Level FlightAware ADS-B
Mon 11:46:31 PM 19.9974 -85.8679 138° Southeast 528 608 33,000  Level FlightAware ADS-B
Mon 11:47:01 PM 19.9442 -85.8178 138° Southeast 530 610 33,000  Level FlightAware ADS-B
Mon 11:47:31 PM 19.8885 -85.7654 138° Southeast 531 611 33,000  Level FlightAware ADS-B
Mon 11:48:02 PM 19.8314 -85.7116 138° Southeast 531 611 33,000  Level FlightAware ADS-B
Mon 11:48:32 PM 19.7758 -85.6593 138° Southeast 530 610 33,000  Level FlightAware ADS-B
Mon 11:49:03 PM 19.7205 -85.6073 138° Southeast 529 609 33,000  Level FlightAware ADS-B
Mon 11:49:32 PM 19.6655 -85.5557 138° Southeast 529 609 33,000  Level FlightAware ADS-B
Mon 11:50:02 PM 19.6119 -85.5054 138° Southeast 529 609 33,000  Level FlightAware ADS-B
Mon 11:50:32 PM 19.5558 -85.4528 138° Southeast 528 608 33,000  Level FlightAware ADS-B
Mon 11:51:01 PM 19.5036 -85.4038 138° Southeast 530 610 33,000  Level FlightAware ADS-B
Mon 11:51:31 PM 19.4490 -85.3525 138° Southeast 531 611 33,000  Level FlightAware ADS-B
Mon 11:52:02 PM 19.3922 -85.2995 138° Southeast 532 612 33,000  Level FlightAware ADS-B
Mon 11:52:32 PM 19.3364 -85.2473 138° Southeast 531 611 33,000  Level FlightAware ADS-B
Mon 11:53:01 PM 19.2835 -85.1980 138° Southeast 531 611 33,000  Level FlightAware ADS-B
Mon 11:53:32 PM 19.2256 -85.1440 138° Southeast 531 611 33,000  Level FlightAware ADS-B
Mon 11:54:31 PM 19.1164 -85.0424 138° Southeast 532 612 33,000  Level FlightAware ADS-B
Mon 11:55:02 PM 19.0607 -84.9907 138° Southeast 533 613 33,000  Level FlightAware ADS-B
Mon 11:56:01 PM 18.9992 -84.9337 138° Southeast 534 615 33,000  Level FlightAware ADS-B
Mon 11:56:27 PM 18.9347 -84.8736 138° Southeast 533 613 33,000  Level FlightAware ADS-B
Mon 11:56:50 PM 18.8616 -84.8058 138° Southeast 532 612 33,000 Level FlightAware ADS-B
Mon 11:59:00 PM 18.6502 -84.5974 137° Southeast  Level Estimated
Tue 12:00:00 AM 18.5525 -84.5014 137° Southeast  Level Estimated
Tue 12:01:00 AM 18.4548 -84.4054 137° Southeast  Level Estimated
Tue 12:02:00 AM 18.3570 -84.3096 137° Southeast  Level Estimated
Tue 12:03:00 AM 18.2593 -84.2139 137° Southeast  Level FlightAware Approximate
Tue 12:04:00 AM 18.1614 -84.1183 137° Southeast  Level FlightAware Approximate
Tue 12:05:00 AM 18.0636 -84.0228 137° Southeast  Level FlightAware Approximate
Tue 12:06:00 AM 17.9657 -83.9274 137° Southeast  Level FlightAware Approximate
Tue 12:07:00 AM 17.8677 -83.8321 137° Southeast  Level FlightAware Approximate
Tue 12:08:00 AM 17.7697 -83.7369 137° Southeast  Level FlightAware Approximate
Tue 12:09:00 AM 17.6716 -83.6418 137° Southeast  Level FlightAware Approximate
Tue 12:10:00 AM 17.5736 -83.5468 137° Southeast  Level FlightAware Approximate
Tue 12:11:00 AM 17.4754 -83.4519 137° Southeast  Level FlightAware Approximate
Tue 12:12:00 AM 17.3772 -83.3571 137° Southeast  Level FlightAware Approximate
Tue 12:13:00 AM 17.2790 -83.2624 137° Southeast  Level FlightAware Approximate
Tue 12:14:00 AM 17.1807 -83.1678 137° Southeast  Level FlightAware Approximate
Tue 12:15:00 AM 17.0824 -83.0734 137° Southeast  Level FlightAware Approximate
Tue 12:16:00 AM 16.9841 -82.9790 137° Southeast  Level FlightAware Approximate
Tue 12:17:00 AM 16.8856 -82.8847 137° Southeast  Level FlightAware Approximate
Tue 12:18:00 AM 16.7872 -82.7905 138° Southeast  Level FlightAware Approximate
Tue 12:19:00 AM 16.6887 -82.6964 138° Southeast  Level FlightAware Approximate
Tue 12:20:00 AM 16.5902 -82.6024 138° Southeast  Level FlightAware Approximate
Tue 12:21:00 AM 16.4916 -82.5085 138° Southeast  Level FlightAware Approximate
Tue 12:22:00 AM 16.3930 -82.4147 138° Southeast  Level FlightAware Approximate
Tue 12:23:00 AM 16.2943 -82.3210 138° Southeast  Level FlightAware Approximate
Tue 12:24:00 AM 16.1956 -82.2274 138° Southeast  Level FlightAware Approximate
Tue 12:25:00 AM 16.0935 -82.1357 140° Southeast  Level FlightAware Approximate
Tue 12:26:00 AM 15.9914 -82.0462 140° Southeast  Level FlightAware Approximate
Tue 12:27:00 AM 15.8893 -81.9568 140° Southeast  Level FlightAware Approximate
Tue 12:28:00 AM 15.7871 -81.8675 140° Southeast  Level FlightAware Approximate
Tue 12:29:00 AM 15.6849 -81.7783 140° Southeast  Level FlightAware Approximate
Tue 12:30:00 AM 15.5827 -81.6892 140° Southeast  Level FlightAware Approximate
Tue 12:31:00 AM 15.4804 -81.6001 140° Southeast  Level FlightAware Approximate
Tue 12:32:00 AM 15.3781 -81.5111 140° Southeast  Level FlightAware Approximate
Tue 12:33:00 AM 15.2758 -81.4223 140° Southeast  Level FlightAware Approximate
Tue 12:34:00 AM 15.1734 -81.3335 140° Southeast  Level FlightAware Approximate
Tue 12:35:00 AM 15.0710 -81.2448 140° Southeast  Level FlightAware Approximate
Tue 12:36:00 AM 14.9685 -81.1562 140° Southeast  Level FlightAware Approximate
Tue 12:37:00 AM 14.8659 -81.0680 140° Southeast  Level FlightAware Approximate
Tue 12:38:00 AM 14.7632 -80.9798 140° Southeast  Level FlightAware Approximate
Tue 12:39:00 AM 14.6604 -80.8916 140° Southeast  Level FlightAware Approximate
Tue 12:40:00 AM 14.5576 -80.8036 140° Southeast  Level FlightAware Approximate
Tue 12:41:00 AM 14.4549 -80.7157 140° Southeast  Level FlightAware Approximate
Tue 12:42:00 AM 14.3520 -80.6278 140° Southeast  Level FlightAware Approximate
Tue 12:43:00 AM 14.2491 -80.5400 140° Southeast  Level FlightAware Approximate
Tue 12:44:00 AM 14.1462 -80.4523 140° Southeast  Level FlightAware Approximate
Tue 12:45:00 AM 14.0433 -80.3646 140° Southeast  Level FlightAware Approximate
Tue 12:46:00 AM 13.9403 -80.2771 140° Southeast  Level FlightAware Approximate
Tue 12:47:00 AM 13.8373 -80.1896 140° Southeast  Level FlightAware Approximate
Tue 12:48:00 AM 13.7343 -80.1022 141° Southeast  Level FlightAware Approximate
Tue 12:49:00 AM 13.6313 -80.0149 141° Southeast  Level FlightAware Approximate
Tue 12:50:00 AM 13.5282 -79.9277 141° Southeast  Level FlightAware Approximate
Tue 12:51:00 AM 13.4251 -79.8405 141° Southeast  Level FlightAware Approximate
Tue 12:52:00 AM 13.3219 -79.7534 141° Southeast  Level FlightAware Approximate
Tue 12:53:00 AM 13.2187 -79.6664 141° Southeast  Level FlightAware Approximate
Tue 12:54:00 AM 13.1155 -79.5794 141° Southeast  Level FlightAware Approximate
Tue 12:55:00 AM 13.0123 -79.4926 141° Southeast  Level FlightAware Approximate
Tue 12:56:00 AM 12.9090 -79.4058 141° Southeast  Level FlightAware Approximate
Tue 12:57:00 AM 12.8057 -79.3190 141° Southeast  Level FlightAware Approximate
Tue 12:58:00 AM 12.7024 -79.2324 141° Southeast  Level FlightAware Approximate
Tue 12:59:00 AM 12.5991 -79.1458 141° Southeast  Level FlightAware Approximate
Tue 01:00:00 AM 12.4957 -79.0593 141° Southeast  Level FlightAware Approximate
Tue 01:01:00 AM 12.3923 -78.9728 141° Southeast  Level FlightAware Approximate
Tue 01:02:00 AM 12.2889 -78.8864 141° Southeast  Level FlightAware Approximate
Tue 01:03:00 AM 12.1854 -78.8001 141° Southeast  Level FlightAware Approximate
Tue 01:04:00 AM 12.0819 -78.7139 141° Southeast  Level FlightAware Approximate
Tue 01:05:00 AM 11.9784 -78.6277 141° Southeast  Level FlightAware Approximate
Tue 01:06:00 AM 11.8749 -78.5416 141° Southeast  Level FlightAware Approximate
Tue 01:07:00 AM 11.7713 -78.4555 141° Southeast  Level FlightAware Approximate
Tue 01:08:00 AM 11.6677 -78.3696 141° Southeast  Level FlightAware Approximate
Tue 01:09:00 AM 11.5641 -78.2836 141° Southeast  Level FlightAware Approximate
Tue 01:10:00 AM 11.4605 -78.1978 141° Southeast  Level FlightAware Approximate
Tue 01:11:00 AM 11.3568 -78.1120 141° Southeast  Level FlightAware Approximate
Tue 01:12:00 AM 11.2531 -78.0263 141° Southeast  Level FlightAware Approximate
Tue 01:13:00 AM 11.1494 -77.9406 141° Southeast  Level FlightAware Approximate
Tue 01:14:00 AM 11.0456 -77.8550 141° Southeast  Level FlightAware Approximate
Tue 01:15:00 AM 10.9419 -77.7694 141° Southeast  Level FlightAware Approximate
Tue 01:16:00 AM 10.8381 -77.6840 141° Southeast  Level FlightAware Approximate
Tue 01:17:00 AM 10.7343 -77.5985 141° Southeast  Level FlightAware Approximate
Tue 01:18:00 AM 10.6304 -77.5132 141° Southeast  Level FlightAware Approximate
Tue 01:19:00 AM 10.5266 -77.4279 141° Southeast  Level FlightAware Approximate
Tue 01:20:00 AM 10.4227 -77.3426 141° Southeast  Level FlightAware Approximate
Tue 01:21:00 AM 10.3188 -77.2574 141° Southeast  Level FlightAware Approximate
Tue 01:22:00 AM 10.2149 -77.1723 141° Southeast  Level FlightAware Approximate
Tue 01:23:00 AM 10.1109 -77.0872 141° Southeast  Level FlightAware Approximate
Tue 01:24:00 AM 10.0070 -77.0022 141° Southeast  Level FlightAware Approximate
Tue 01:25:00 AM 9.9030 -76.9172 141° Southeast  Level FlightAware Approximate
Tue 01:26:00 AM 9.7990 -76.8323 141° Southeast  Level FlightAware Approximate
Tue 01:27:00 AM 9.6949 -76.7474 141° Southeast  Level FlightAware Approximate
Tue 01:28:00 AM 9.5909 -76.6626 141° Southeast  Level FlightAware Approximate
Tue 01:29:00 AM 9.4868 -76.5778 141° Southeast  Level FlightAware Approximate
Tue 01:30:00 AM 9.3827 -76.4931 141° Southeast  Level FlightAware Approximate
Tue 01:31:00 AM 9.2786 -76.4084 141° Southeast  Level FlightAware Approximate
Tue 01:32:00 AM 9.1744 -76.3238 141° Southeast  Level FlightAware Approximate
Tue 01:33:00 AM 9.0703 -76.2393 141° Southeast  Level FlightAware Approximate
Tue 01:34:00 AM 8.9661 -76.1548 141° Southeast  Level FlightAware Approximate
Tue 01:35:00 AM 8.8619 -76.0703 141° Southeast  Level FlightAware Approximate
Tue 01:36:00 AM 8.7577 -75.9859 141° Southeast  Level FlightAware Approximate
Tue 01:37:00 AM 8.6535 -75.9015 141° Southeast  Level FlightAware Approximate
Tue 01:38:00 AM 8.5492 -75.8172 141° Southeast  Level FlightAware Approximate
Tue 01:39:00 AM 8.4450 -75.7329 141° Southeast  Level FlightAware Approximate
Tue 01:40:00 AM 8.3407 -75.6487 141° Southeast  Level FlightAware Approximate
Tue 01:41:00 AM 8.2364 -75.5645 141° Southeast  Level FlightAware Approximate
Tue 01:42:00 AM 8.1321 -75.4804 141° Southeast  Level FlightAware Approximate
Tue 01:43:00 AM 8.0277 -75.3963 141° Southeast  Level FlightAware Approximate
Tue 01:44:00 AM 7.9234 -75.3122 141° Southeast  Level FlightAware Approximate
Tue 01:45:00 AM 7.8190 -75.2282 141° Southeast  Level FlightAware Approximate
Tue 01:46:00 AM 7.7146 -75.1442 141° Southeast  Level FlightAware Approximate
Tue 01:47:00 AM 7.6102 -75.0603 141° Southeast  Level FlightAware Approximate
Tue 01:48:00 AM 7.5058 -74.9764 141° Southeast  Level FlightAware Approximate
Tue 01:49:00 AM 7.4013 -74.8926 141° Southeast  Level FlightAware Approximate
Tue 01:50:00 AM 7.2969 -74.8088 141° Southeast  Level FlightAware Approximate
Tue 01:51:00 AM 7.1924 -74.7250 141° Southeast  Level FlightAware Approximate
Tue 01:52:00 AM 7.0879 -74.6413 142° Southeast  Level FlightAware Approximate
Tue 01:53:00 AM 6.9834 -74.5576 142° Southeast  Level FlightAware Approximate
Tue 01:54:00 AM 6.8789 -74.4739 142° Southeast  Level FlightAware Approximate
Tue 01:55:00 AM 6.7744 -74.3903 142° Southeast  Level FlightAware Approximate
Tue 01:56:00 AM 6.6699 -74.3067 142° Southeast  Level FlightAware Approximate
Tue 01:57:00 AM 6.5653 -74.2232 142° Southeast  Level FlightAware Approximate
Tue 01:58:00 AM 6.4607 -74.1397 142° Southeast  Level FlightAware Approximate
Tue 01:59:00 AM 6.3562 -74.0562 142° Southeast  Level FlightAware Approximate
Tue 02:00:00 AM 6.2516 -73.9728 142° Southeast  Level FlightAware Approximate
Tue 02:01:00 AM 6.1469 -73.8894 142° Southeast  Level FlightAware Approximate
Tue 02:02:00 AM 6.0423 -73.8060 142° Southeast  Level FlightAware Approximate
Tue 02:03:00 AM 5.9377 -73.7227 142° Southeast  Level FlightAware Approximate
Tue 02:04:00 AM 5.8330 -73.6394 142° Southeast  Level FlightAware Approximate
Tue 02:05:00 AM 5.7284 -73.5561 142° Southeast  Level FlightAware Approximate
Tue 02:06:00 AM 5.6237 -73.4728 142° Southeast  Level FlightAware Approximate
Tue 02:07:00 AM 5.5190 -73.3896 142° Southeast  Level FlightAware Approximate
Tue 02:08:00 AM 5.4143 -73.3064 142° Southeast  Level FlightAware Approximate
Tue 02:09:00 AM 5.3096 -73.2233 142° Southeast  Level FlightAware Approximate
Tue 02:10:00 AM 5.2049 -73.1401 142° Southeast  Level FlightAware Approximate
Tue 02:11:00 AM 5.1002 -73.0570 142° Southeast  Level FlightAware Approximate
Tue 02:12:00 AM 4.9954 -72.9739 142° Southeast  Level FlightAware Approximate
Tue 02:13:00 AM 4.8907 -72.8909 142° Southeast  Level FlightAware Approximate
Tue 02:14:00 AM 4.7859 -72.8079 142° Southeast  Level FlightAware Approximate
Tue 02:15:00 AM 4.6811 -72.7249 142° Southeast  Level FlightAware Approximate
Tue 02:16:00 AM 4.5764 -72.6419 142° Southeast  Level FlightAware Approximate
Tue 02:17:00 AM 4.4716 -72.5589 142° Southeast  Level FlightAware Approximate
Tue 02:18:00 AM 4.3668 -72.4760 142° Southeast  Level FlightAware Approximate
Tue 02:19:00 AM 4.2620 -72.3931 142° Southeast  Level FlightAware Approximate
Tue 02:20:00 AM 4.1571 -72.3102 142° Southeast  Level FlightAware Approximate
Tue 02:21:00 AM 4.0523 -72.2274 142° Southeast  Level FlightAware Approximate
Tue 02:22:00 AM 3.9475 -72.1445 142° Southeast  Level FlightAware Approximate
Tue 02:23:00 AM 3.8389 -72.0667 145° Southeast  Level FlightAware Approximate
Tue 02:24:00 AM 3.7298 -71.9897 145° Southeast  Level FlightAware Approximate
Tue 02:25:00 AM 3.6206 -71.9127 145° Southeast  Level FlightAware Approximate
Tue 02:26:00 AM 3.5115 -71.8357 145° Southeast  Level FlightAware Approximate
Tue 02:27:00 AM 3.4023 -71.7588 145° Southeast  Level FlightAware Approximate
Tue 02:28:00 AM 3.2931 -71.6818 145° Southeast  Level FlightAware Approximate
Tue 02:29:00 AM 3.1839 -71.6049 145° Southeast  Level FlightAware Approximate
Tue 02:30:00 AM 3.0748 -71.5280 145° Southeast  Level FlightAware Approximate
Tue 02:31:00 AM 2.9656 -71.4511 145° Southeast  Level FlightAware Approximate
Tue 02:32:00 AM 2.8564 -71.3742 145° Southeast  Level FlightAware Approximate
Tue 02:33:00 AM 2.7472 -71.2973 145° Southeast  Level FlightAware Approximate
Tue 02:34:00 AM 2.6380 -71.2205 145° Southeast  Level FlightAware Approximate
Tue 02:35:00 AM 2.5287 -71.1437 145° Southeast  Level FlightAware Approximate
Tue 02:36:00 AM 2.4195 -71.0668 145° Southeast  Level FlightAware Approximate
Tue 02:37:00 AM 2.3103 -70.9900 145° Southeast  Level FlightAware Approximate
Tue 02:38:00 AM 2.2011 -70.9132 145° Southeast  Level FlightAware Approximate
Tue 02:39:00 AM 2.0919 -70.8364 145° Southeast  Level FlightAware Approximate
Tue 02:40:00 AM 1.9826 -70.7597 145° Southeast  Level FlightAware Approximate
Tue 02:41:00 AM 1.8734 -70.6829 145° Southeast  Level FlightAware Approximate
Tue 02:42:00 AM 1.7642 -70.6062 145° Southeast  Level FlightAware Approximate
Tue 02:43:00 AM 1.6549 -70.5294 145° Southeast  Level FlightAware Approximate
Tue 02:44:00 AM 1.5457 -70.4527 145° Southeast  Level FlightAware Approximate
Tue 02:45:00 AM 1.4364 -70.3759 145° Southeast  Level FlightAware Approximate
Tue 02:46:00 AM 1.3272 -70.2992 145° Southeast  Level FlightAware Approximate
Tue 02:47:00 AM 1.2192 -70.2208 138° Southeast  Level FlightAware Approximate
Tue 02:48:00 AM 1.1196 -70.1320 138° Southeast  Level FlightAware Approximate
Tue 02:49:00 AM 1.0199 -70.0432 138° Southeast  Level FlightAware Approximate
Tue 02:50:00 AM 0.9202 -69.9545 138° Southeast  Level FlightAware Approximate
Tue 02:51:00 AM 0.8205 -69.8657 138° Southeast  Level FlightAware Approximate
Tue 02:52:00 AM 0.7207 -69.7769 138° Southeast  Level FlightAware Approximate
Tue 02:53:00 AM 0.6211 -69.6882 138° Southeast  Level FlightAware Approximate
Tue 02:54:00 AM 0.5213 -69.5994 138° Southeast  Level FlightAware Approximate
Tue 02:55:00 AM 0.4216 -69.5106 138° Southeast  Level FlightAware Approximate
Tue 02:56:00 AM 0.3219 -69.4219 138° Southeast  Level FlightAware Approximate
Tue 02:57:00 AM 0.2222 -69.3331 138° Southeast  Level FlightAware Approximate
Tue 02:58:00 AM 0.1225 -69.2444 138° Southeast  Level FlightAware Approximate
Tue 02:59:00 AM 0.0228 -69.1556 138° Southeast  Level FlightAware Approximate
Tue 03:00:00 AM -0.0769 -69.0669 138° Southeast  Level FlightAware Approximate
Tue 03:01:00 AM -0.1766 -68.9781 138° Southeast  Level FlightAware Approximate
Tue 03:02:00 AM -0.2763 -68.8894 138° Southeast  Level FlightAware Approximate
Tue 03:03:00 AM -0.3761 -68.8006 138° Southeast  Level FlightAware Approximate
Tue 03:04:00 AM -0.4758 -68.7119 138° Southeast  Level FlightAware Approximate
Tue 03:05:00 AM -0.5755 -68.6231 138° Southeast  Level FlightAware Approximate
Tue 03:06:00 AM -0.6752 -68.5344 138° Southeast  Level FlightAware Approximate
Tue 03:07:00 AM -0.7749 -68.4456 138° Southeast  Level FlightAware Approximate
Tue 03:08:00 AM -0.8746 -68.3568 138° Southeast  Level FlightAware Approximate
Tue 03:09:00 AM -0.9743 -68.2681 138° Southeast  Level FlightAware Approximate
Tue 03:10:00 AM -1.0740 -68.1793 138° Southeast  Level FlightAware Approximate
Tue 03:11:00 AM -1.1737 -68.0905 138° Southeast  Level FlightAware Approximate
Tue 03:12:00 AM -1.2734 -68.0017 138° Southeast  Level FlightAware Approximate
Tue 03:13:00 AM -1.3731 -67.9129 138° Southeast  Level FlightAware Approximate
Tue 03:14:00 AM -1.4728 -67.8241 138° Southeast  Level FlightAware Approximate
Tue 03:15:00 AM -1.5725 -67.7353 138° Southeast  Level FlightAware Approximate
Tue 03:16:00 AM -1.6721 -67.6465 138° Southeast  Level FlightAware Approximate
Tue 03:17:00 AM -1.7718 -67.5577 138° Southeast  Level FlightAware Approximate
Tue 03:18:00 AM -1.8715 -67.4688 138° Southeast  Level FlightAware Approximate
Tue 03:19:00 AM -1.9712 -67.3800 138° Southeast  Level FlightAware Approximate
Tue 03:20:00 AM -2.0708 -67.2911 138° Southeast  Level FlightAware Approximate
Tue 03:21:00 AM -2.1705 -67.2022 138° Southeast  Level FlightAware Approximate
Tue 03:22:00 AM -2.2701 -67.1133 138° Southeast  Level FlightAware Approximate
Tue 03:23:00 AM -2.3698 -67.0245 138° Southeast  Level FlightAware Approximate
Tue 03:24:00 AM -2.4694 -66.9355 138° Southeast  Level FlightAware Approximate
Tue 03:25:00 AM -2.5691 -66.8466 138° Southeast  Level FlightAware Approximate
Tue 03:26:00 AM -2.6687 -66.7577 138° Southeast  Level FlightAware Approximate
Tue 03:27:00 AM -2.7683 -66.6687 138° Southeast  Level FlightAware Approximate
Tue 03:28:00 AM -2.8679 -66.5798 138° Southeast  Level FlightAware Approximate
Tue 03:29:00 AM -2.9675 -66.4908 138° Southeast  Level FlightAware Approximate
Tue 03:30:00 AM -3.0671 -66.4018 138° Southeast  Level FlightAware Approximate
Tue 03:31:00 AM -3.1667 -66.3128 138° Southeast  Level FlightAware Approximate
Tue 03:32:00 AM -3.2663 -66.2238 138° Southeast  Level FlightAware Approximate
Tue 03:33:00 AM -3.3659 -66.1347 138° Southeast  Level FlightAware Approximate
Tue 03:34:00 AM -3.4655 -66.0456 138° Southeast  Level FlightAware Approximate
Tue 03:35:00 AM -3.5650 -65.9566 138° Southeast  Level FlightAware Approximate
Tue 03:36:00 AM -3.6646 -65.8675 138° Southeast  Level FlightAware Approximate
Tue 03:37:00 AM -3.7641 -65.7783 138° Southeast  Level FlightAware Approximate
Tue 03:38:00 AM -3.8637 -65.6892 138° Southeast  Level FlightAware Approximate
Tue 03:39:00 AM -3.9632 -65.6000 138° Southeast  Level FlightAware Approximate
Tue 03:40:00 AM -4.0627 -65.5108 138° Southeast  Level FlightAware Approximate
Tue 03:41:00 AM -4.1622 -65.4216 138° Southeast  Level FlightAware Approximate
Tue 03:42:00 AM -4.2617 -65.3324 138° Southeast  Level FlightAware Approximate
Tue 03:43:00 AM -4.3612 -65.2432 138° Southeast  Level FlightAware Approximate
Tue 03:44:00 AM -4.4607 -65.1539 138° Southeast  Level FlightAware Approximate
Tue 03:45:00 AM -4.5601 -65.0646 138° Southeast  Level FlightAware Approximate
Tue 03:46:00 AM -4.6596 -64.9753 138° Southeast  Level FlightAware Approximate
Tue 03:47:00 AM -4.7590 -64.8859 138° Southeast  Level FlightAware Approximate
Tue 03:48:00 AM -4.8585 -64.7965 138° Southeast  Level FlightAware Approximate
Tue 03:49:00 AM -4.9579 -64.7071 138° Southeast  Level FlightAware Approximate
Tue 03:50:00 AM -5.0573 -64.6177 138° Southeast  Level FlightAware Approximate
Tue 03:51:00 AM -5.1567 -64.5282 138° Southeast  Level FlightAware Approximate
Tue 03:52:00 AM -5.2561 -64.4388 138° Southeast  Level FlightAware Approximate
Tue 03:53:00 AM -5.3555 -64.3492 138° Southeast  Level FlightAware Approximate
Tue 03:54:00 AM -5.4548 -64.2597 138° Southeast  Level FlightAware Approximate
Tue 03:55:00 AM -5.5542 -64.1701 138° Southeast  Level FlightAware Approximate
Tue 03:56:00 AM -5.6535 -64.0805 138° Southeast  Level FlightAware Approximate
Tue 03:57:00 AM -5.7528 -63.9909 138° Southeast  Level FlightAware Approximate
Tue 03:58:00 AM -5.8521 -63.9012 138° Southeast  Level FlightAware Approximate
Tue 03:59:00 AM -5.9514 -63.8115 138° Southeast  Level FlightAware Approximate
Tue 04:00:00 AM -6.0507 -63.7218 138° Southeast  Level FlightAware Approximate
Tue 04:01:00 AM -6.1499 -63.6320 138° Southeast  Level FlightAware Approximate
Tue 04:02:00 AM -6.2492 -63.5422 138° Southeast  Level FlightAware Approximate
Tue 04:03:00 AM -6.3484 -63.4524 138° Southeast  Level FlightAware Approximate
Tue 04:04:00 AM -6.4476 -63.3625 138° Southeast  Level FlightAware Approximate
Tue 04:05:00 AM -6.5468 -63.2726 138° Southeast  Level FlightAware Approximate
Tue 04:06:00 AM -6.6460 -63.1827 138° Southeast  Level FlightAware Approximate
Tue 04:07:00 AM -6.7452 -63.0927 138° Southeast  Level FlightAware Approximate
Tue 04:08:00 AM -6.8443 -63.0027 138° Southeast  Level FlightAware Approximate
Tue 04:09:00 AM -6.9434 -62.9127 138° Southeast  Level FlightAware Approximate
Tue 04:10:00 AM -7.0426 -62.8226 138° Southeast  Level FlightAware Approximate
Tue 04:11:00 AM -7.1417 -62.7325 138° Southeast  Level FlightAware Approximate
Tue 04:12:00 AM -7.2407 -62.6423 138° Southeast  Level FlightAware Approximate
Tue 04:13:00 AM -7.3398 -62.5521 138° Southeast  Level FlightAware Approximate
Tue 04:14:00 AM -7.4388 -62.4618 138° Southeast  Level FlightAware Approximate
Tue 04:15:00 AM -7.5379 -62.3716 138° Southeast  Level FlightAware Approximate
Tue 04:16:00 AM -7.6369 -62.2812 138° Southeast  Level FlightAware Approximate
Tue 04:17:00 AM -7.7359 -62.1909 138° Southeast  Level FlightAware Approximate
Tue 04:18:00 AM -7.8348 -62.1005 138° Southeast  Level FlightAware Approximate
Tue 04:19:00 AM -7.9338 -62.0100 138° Southeast  Level FlightAware Approximate
Tue 04:20:00 AM -8.0327 -61.9195 138° Southeast  Level FlightAware Approximate
Tue 04:21:00 AM -8.1316 -61.8290 138° Southeast  Level FlightAware Approximate
Tue 04:22:00 AM -8.2305 -61.7384 138° Southeast  Level FlightAware Approximate
Tue 04:23:00 AM -8.3294 -61.6478 138° Southeast  Level FlightAware Approximate
Tue 04:24:00 AM -8.4283 -61.5571 138° Southeast  Level FlightAware Approximate
Tue 04:25:00 AM -8.5271 -61.4664 138° Southeast  Level FlightAware Approximate
Tue 04:26:00 AM -8.6259 -61.3756 138° Southeast  Level FlightAware Approximate
Tue 04:27:00 AM -8.7247 -61.2848 138° Southeast  Level FlightAware Approximate
Tue 04:28:00 AM -8.8235 -61.1939 138° Southeast  Level FlightAware Approximate
Tue 04:29:00 AM -8.9222 -61.1030 138° Southeast  Level FlightAware Approximate
Tue 04:30:00 AM -9.0209 -61.0121 138° Southeast  Level FlightAware Approximate
Tue 04:31:00 AM -9.1196 -60.9211 138° Southeast  Level FlightAware Approximate
Tue 04:32:00 AM -9.2183 -60.8300 138° Southeast  Level FlightAware Approximate
Tue 04:33:00 AM -9.3169 -60.7389 138° Southeast  Level FlightAware Approximate
Tue 04:34:00 AM -9.4156 -60.6477 138° Southeast  Level FlightAware Approximate
Tue 04:35:00 AM -9.5142 -60.5565 138° Southeast  Level FlightAware Approximate
Tue 04:36:00 AM -9.6128 -60.4652 138° Southeast  Level FlightAware Approximate
Tue 04:37:00 AM -9.7113 -60.3739 138° Southeast  Level FlightAware Approximate
Tue 04:38:00 AM -9.8099 -60.2825 138° Southeast  Level FlightAware Approximate
Tue 04:39:00 AM -9.9084 -60.1911 138° Southeast  Level FlightAware Approximate
Tue 04:40:00 AM -10.0069 -60.0996 138° Southeast  Level FlightAware Approximate
Tue 04:41:00 AM -10.1053 -60.0081 138° Southeast  Level FlightAware Approximate
Tue 04:42:00 AM -10.2038 -59.9165 138° Southeast  Level FlightAware Approximate
Tue 04:43:00 AM -10.3022 -59.8248 138° Southeast  Level FlightAware Approximate
Tue 04:44:00 AM -10.4006 -59.7331 137° Southeast  Level FlightAware Approximate
Tue 04:45:00 AM -10.4989 -59.6413 137° Southeast  Level FlightAware Approximate
Tue 04:46:00 AM -10.5973 -59.5495 137° Southeast  Level FlightAware Approximate
Tue 04:47:00 AM -10.6956 -59.4576 137° Southeast  Level FlightAware Approximate
Tue 04:48:00 AM -10.7938 -59.3657 137° Southeast  Level FlightAware Approximate
Tue 04:49:00 AM -10.8921 -59.2737 137° Southeast  Level FlightAware Approximate
Tue 04:50:00 AM -10.9903 -59.1816 137° Southeast  Level FlightAware Approximate
Tue 04:51:00 AM -11.0885 -59.0895 137° Southeast  Level FlightAware Approximate
Tue 04:52:00 AM -11.1867 -58.9973 137° Southeast  Level FlightAware Approximate
Tue 04:53:00 AM -11.2848 -58.9051 137° Southeast  Level FlightAware Approximate
Tue 04:54:00 AM -11.3829 -58.8127 137° Southeast  Level FlightAware Approximate
Tue 04:55:00 AM -11.4810 -58.7204 137° Southeast  Level FlightAware Approximate
Tue 04:56:00 AM -11.5791 -58.6279 137° Southeast  Level FlightAware Approximate
Tue 04:57:00 AM -11.6771 -58.5354 137° Southeast  Level FlightAware Approximate
Tue 04:58:00 AM -11.7751 -58.4428 137° Southeast  Level FlightAware Approximate
Tue 04:59:00 AM -11.8731 -58.3502 137° Southeast  Level FlightAware Approximate
Tue 05:00:00 AM -11.9710 -58.2575 137° Southeast  Level FlightAware Approximate
Tue 05:01:00 AM -12.0689 -58.1647 137° Southeast  Level FlightAware Approximate
Tue 05:02:00 AM -12.1668 -58.0719 137° Southeast  Level FlightAware Approximate
Tue 05:03:00 AM -12.2646 -57.9790 137° Southeast  Level FlightAware Approximate
Tue 05:04:00 AM -12.3624 -57.8860 137° Southeast  Level FlightAware Approximate
Tue 05:05:00 AM -12.4602 -57.7929 137° Southeast  Level FlightAware Approximate
Tue 05:06:00 AM -12.5580 -57.6998 137° Southeast  Level FlightAware Approximate
Tue 05:07:00 AM -12.6557 -57.6067 137° Southeast  Level FlightAware Approximate
Tue 05:08:00 AM -12.7534 -57.5134 137° Southeast  Level FlightAware Approximate
Tue 05:09:00 AM -12.8510 -57.4201 137° Southeast  Level FlightAware Approximate
Tue 05:10:00 AM -12.9486 -57.3266 137° Southeast  Level FlightAware Approximate
Tue 05:11:00 AM -13.0462 -57.2332 137° Southeast  Level FlightAware Approximate
Tue 05:12:00 AM -13.1438 -57.1396 137° Southeast  Level FlightAware Approximate
Tue 05:12:29 AM -12.6458 -56.1178 136° Southeast 475 547 35,000  Level FlightAware ADS-B (EPSY / SZY)
Tue 05:13:00 AM -13.2413 -57.0460 137° Southeast  Level FlightAware Approximate
Tue 05:13:46 AM -12.7663 -55.9984 136° Southeast 474 545 35,000  Level FlightAware ADS-B (EPSY / SZY)
Tue 05:14:32 AM -12.8384 -55.9268 136° Southeast 473 544 35,000  Level FlightAware ADS-B (EPSY / SZY)
Tue 05:15:38 AM -12.9427 -55.8230 136° Southeast 474 545 35,000  Level FlightAware ADS-B (EPSY / SZY)
Tue 05:16:16 AM -13.0010 -55.7650 136° Southeast 475 547 35,000  Level FlightAware ADS-B (EPSY / SZY)
Tue 05:16:47 AM -13.0522 -55.7140 136° Southeast 475 547 35,000  Level FlightAware ADS-B (EPSY / SZY)
Tue 05:17:17 AM -13.0880 -55.6784 136° Southeast 474 545 35,000  Level FlightAware ADS-B (EPSY / SZY)
Tue 05:17:47 AM -13.1438 -55.6228 136° Southeast 473 544 35,000  Level FlightAware ADS-B (EPSY / SZY)
Tue 05:18:33 AM -13.2149 -55.5519 136° Southeast 472 543 35,000  Level FlightAware ADS-B (EPSY / SZY)
Tue 05:19:14 AM -13.2802 -55.4867 136° Southeast 472 543 35,000  Level FlightAware ADS-B (EPSY / SZY)
Tue 05:19:47 AM -13.3341 -55.4327 136° Southeast 472 543 35,000  Level FlightAware ADS-B (EPSY / SZY)
Tue 05:20:17 AM -13.3752 -55.3917 136° Southeast 472 543 35,000  Level FlightAware ADS-B (EPSY / SZY)
Tue 05:20:47 AM -13.4288 -55.3380 136° Southeast 472 543 35,000  Level FlightAware ADS-B (EPSY / SZY)
Tue 05:21:32 AM -13.4962 -55.2706 136° Southeast 474 545 35,000  Level FlightAware ADS-B (EPSY / SZY)
Tue 05:22:02 AM -13.5432 -55.2235 136° Southeast 475 547 35,000  Level FlightAware ADS-B (EPSY / SZY)
Tue 05:22:33 AM -13.5873 -55.1793 136° Southeast 477 549 35,000  Level FlightAware ADS-B (EPSY / SZY)
Tue 05:23:03 AM -13.6408 -55.1256 136° Southeast 478 550 35,000  Level FlightAware ADS-B (EPSY / SZY)
Tue 05:23:48 AM -13.7127 -55.0535 136° Southeast 479 551 35,000  Level FlightAware ADS-B (EPSY / SZY)
Tue 05:24:32 AM -13.7823 -54.9836 136° Southeast 479 551 35,000  Level FlightAware ADS-B (EPSY / SZY)
Tue 05:25:02 AM -13.8244 -54.9412 135° Southeast 479 551 35,000  Level FlightAware ADS-B (EPSY / SZY)
Tue 05:25:33 AM -13.8793 -54.8859 135° Southeast 479 551 35,000  Level FlightAware ADS-B (EPSY / SZY)
Tue 05:26:18 AM -13.9502 -54.8146 136° Southeast 479 551 35,000  Level FlightAware ADS-B (EPSY / SZY)
Tue 05:27:01 AM -14.0077 -54.7568 135° Southeast 480 552 35,000  Level FlightAware ADS-B (EPSY / SZY)
Tue 05:27:32 AM -14.0606 -54.7033 135° Southeast 482 555 35,000  Level FlightAware ADS-B (EPSY / SZY)
Tue 06:27:11 AM -19.5058 -48.2685 131° Southeast 512 589 35,000  Level FlightAware ADS-B (SDAM)
Tue 06:28:12 AM -19.6049 -48.1506 131° Southeast 512 589 35,000  Level FlightAware ADS-B (SDAM)
Tue 06:28:42 AM -19.6524 -48.0941 131° Southeast 512 589 35,000  Level FlightAware ADS-B (SDAM)
Tue 06:29:13 AM -19.7000 -48.0373 131° Southeast 512 589 35,000  Level FlightAware ADS-B (SDAM)
Tue 06:29:47 AM -19.7519 -47.9719 126° Southeast 514 592 35,000  Level FlightAware ADS-B (SDAM)
Tue 06:30:16 AM -19.7888 -47.9086 117° Southeast 519 597 35,000  Level FlightAware ADS-B (SDAM)
Tue 06:30:57 AM -19.8325 -47.8139 115° Southeast 522 601 35,000  Level FlightAware ADS-B (SDAM)
Tue 06:31:26 AM -19.8580 -47.7580 116° Southeast 521 600 35,000  Level FlightAware ADS-B (EGOQ)
Tue 06:31:27 AM -19.8528 -47.7695 115° Southeast 521 600 35,000  Level FlightAware ADS-B (SDAM)
Tue 06:31:57 AM -19.8955 -47.6761 115° Southeast 522 601 35,000  Level FlightAware ADS-B (SDAM)
Tue 06:32:24 AM -19.9223 -47.6174 116° Southeast 521 600 35,000  Level FlightAware ADS-B (EGOQ)
Tue 06:32:27 AM -19.9271 -47.6068 115° Southeast 522 601 35,000  Level FlightAware ADS-B (SDAM)
Tue 06:32:57 AM -19.9586 -47.5381 115° Southeast 522 601 35,000  Level FlightAware ADS-B (SDAM)
Tue 06:33:22 AM -19.9844 -47.4817 116° Southeast 521 600 35,000  Level FlightAware ADS-B (EGOQ)
Tue 06:33:27 AM -19.9902 -47.4691 115° Southeast 522 601 35,000  Level FlightAware ADS-B (SDAM)
Tue 06:33:57 AM -20.0214 -47.4007 115° Southeast 522 601 35,000  Level FlightAware ADS-B (SDAM)
Tue 06:34:19 AM -20.0419 -47.3558 116° Southeast 521 600 35,000  Level FlightAware ADS-B (EGOQ)
Tue 06:34:28 AM -20.0517 -47.3341 115° Southeast 521 600 35,000  Level FlightAware ADS-B (SDAM)
Tue 06:34:57 AM -20.0849 -47.2613 115° Southeast 522 601 35,000  Level FlightAware ADS-B (SDAM)
Tue 06:35:17 AM -20.1059 -47.2151 116° Southeast 522 601 35,000  Level FlightAware ADS-B (EGOQ)
Tue 06:35:27 AM -20.1156 -47.1936 115° Southeast 523 602 35,000  Level FlightAware ADS-B (SDAM)
Tue 06:35:47 AM -20.1353 -47.1501 116° Southeast 522 601 35,000  Level FlightAware ADS-B (EGOQ)
Tue 06:35:57 AM -20.1470 -47.1245 115° Southeast 523 602 35,000  Level FlightAware ADS-B (SDAM)
Tue 06:36:27 AM -20.1791 -47.0535 115° Southeast 523 602 35,000  Level FlightAware ADS-B (SDAM)
Tue 06:36:44 AM -20.1967 -47.0146 116° Southeast 521 600 35,000  Level FlightAware ADS-B (EGOQ)
Tue 06:36:58 AM -20.2106 -46.9839 115° Southeast 523 602 35,000  Level FlightAware ADS-B (SDAM)
Tue 06:37:14 AM -20.2281 -46.9451 116° Southeast 522 601 35,000  Level FlightAware ADS-B (EGOQ)
Tue 06:37:28 AM -20.2421 -46.9143 115° Southeast 523 602 35,000  Level FlightAware ADS-B (SDAM)
Tue 06:37:57 AM -20.2722 -46.8479 115° Southeast 524 603 35,000  Level FlightAware ADS-B (SDAM)
Tue 06:38:12 AM -20.2886 -46.8114 116° Southeast 523 602 35,000  Level FlightAware ADS-B (EGOQ)
Tue 06:38:28 AM -20.3051 -46.7750 115° Southeast 524 603 35,000  Level FlightAware ADS-B (SDAM)
Tue 06:38:56 AM -20.3348 -46.7096 116° Southeast 524 603 35,000  Level FlightAware ADS-B (SDAM)
Tue 06:39:10 AM -20.3530 -46.6801 129° Southeast 513 590 35,000  Level FlightAware ADS-B (EGOQ)
Tue 06:39:27 AM -20.3829 -46.6498 141° Southeast 502 578 35,000  Level FlightAware ADS-B (SDAM)
Tue 06:39:39 AM -20.4056 -46.6345 150° Southeast 493 567 35,000  Level FlightAware ADS-B (EGOQ)
Tue 06:39:47 AM -20.4222 -46.6263 156° South 487 560 35,000  Level FlightAware ADS-B (SDAM)
Tue 06:40:08 AM -20.4650 -46.6144 169° South 474 545 35,000  Level FlightAware ADS-B (SDAM)
Tue 06:40:34 AM -20.5224 -46.6035 170° South 476 548 35,000  Level FlightAware ADS-B (SDAM)
Tue 06:41:06 AM -20.5923 -46.5919 172° South 475 547 35,000  Level FlightAware ADS-B (EGOQ)
Tue 06:41:07 AM -20.5945 -46.5915 171° South 476 548 35,000  Level FlightAware ADS-B (SDAM)
Tue 06:41:37 AM -20.6604 -46.5815 171° South 477 549 35,000  Level FlightAware ADS-B (SDAM)
Tue 06:42:04 AM -20.7179 -46.5725 172° South 477 549 35,000  Level FlightAware ADS-B (EGOQ)
Tue 06:42:07 AM -20.7249 -46.5714 171° South 478 550 35,000  Level FlightAware ADS-B (SDAM)
Tue 06:42:37 AM -20.7920 -46.5605 171° South 480 552 35,000  Level FlightAware ADS-B (SDAM)
Tue 06:43:00 AM -20.8403 -46.5525 171° South 481 554 35,000  Level FlightAware ADS-B (EGOQ)
Tue 06:43:07 AM -20.8576 -46.5496 170° South 482 555 35,000  Level FlightAware ADS-B (SDAM)
Tue 06:43:31 AM -20.9061 -46.5414 171° South 481 554 35,000  Level FlightAware ADS-B (EGOQ)
Tue 06:43:37 AM -20.9244 -46.5383 170° South 482 555 35,000  Level FlightAware ADS-B (SDAM)
Tue 06:44:08 AM -20.9904 -46.5272 171° South 481 554 35,000  Level FlightAware ADS-B (SDAM)
Tue 06:44:29 AM -21.0382 -46.5193 171° South 481 554 35,000  Level FlightAware ADS-B (EGOQ)
Tue 06:44:38 AM -21.0569 -46.5162 171° South 481 554 35,000  Level FlightAware ADS-B (SDAM)
Tue 06:45:07 AM -21.1210 -46.5055 171° South 481 554 35,000  Level FlightAware ADS-B (SDAM)
Tue 06:45:27 AM -21.1664 -46.4979 171° South 481 554 35,000  Level FlightAware ADS-B (EGOQ)
Tue 06:45:38 AM -21.1891 -46.4942 171° South 481 554 35,000  Level FlightAware ADS-B (SDAM)
Tue 06:46:07 AM -21.2550 -46.4836 171° South 481 554 35,000  Level FlightAware ADS-B (SDAM)
Tue 06:46:25 AM -21.2936 -46.4773 171° South 480 552 35,000  Level FlightAware ADS-B (EGOQ)
Tue 06:46:38 AM -21.3207 -46.4729 171° South 481 554 35,000  Level FlightAware ADS-B (SDAM)
Tue 06:47:07 AM -21.3866 -46.4622 171° South 481 554 35,000  Level FlightAware ADS-B (SDAM)
Tue 06:47:23 AM -21.4146 -46.4576 171° South 481 554 35,000  Level FlightAware ADS-B (EGOQ)
Tue 06:47:37 AM -21.4530 -46.4513 171° South 480 552 35,000  Level FlightAware ADS-B (SDAM)
Tue 06:48:07 AM -21.5189 -46.4406 171° South 481 554 35,000 -136 Level FlightAware ADS-B (SDAM)
Tue 06:48:21 AM -21.5486 -46.4357 171° South 481 554 34,900 -686 Descending FlightAware ADS-B (EGOQ)
Tue 06:48:42 AM -21.5962 -46.4279 171° South 486 559 34,600 -824 Descending FlightAware ADS-B (SDAM)
Tue 06:49:12 AM -21.6636 -46.4169 171° South 490 564 34,200 -811 Descending FlightAware ADS-B (SDAM)
Tue 06:49:19 AM -21.6784 -46.4145 171° South 491 565 34,100 -800 Descending FlightAware ADS-B (EGOQ)
Tue 06:49:42 AM -21.7314 -46.4058 171° South 493 567 33,800 -667 Descending FlightAware ADS-B (SDAM)
Tue 06:50:13 AM -21.7990 -46.3946 171° South 490 564 33,500 -529 Descending FlightAware ADS-B (SDAM)
Tue 06:50:16 AM -21.8033 -46.3939 171° South 489 563 33,500 -828 Level FlightAware ADS-B (EGOQ)
Tue 06:50:42 AM -21.8643 -46.3838 171° South 487 560 33,100 -964 Descending FlightAware ADS-B (SDAM)
Tue 06:51:12 AM -21.9322 -46.3726 171° South 485 558 32,600 -1,000 Descending FlightAware ADS-B (SDAM)
Tue 06:51:42 AM -21.9988 -46.3617 171° South 480 552 32,100 -984 Descending FlightAware ADS-B (SDAM)
Tue 06:52:13 AM -22.0644 -46.3507 170° South 468 539 31,600 -1,400 Descending FlightAware ADS-B (SDAM)
Tue 06:52:42 AM -22.1276 -46.3382 169° South 464 534 30,700 -1,831 Descending FlightAware ADS-B (SDAM)
Tue 06:53:12 AM -22.1905 -46.3265 170° South 456 525 29,800 -1,543 Descending FlightAware ADS-B (SDAM)
Tue 06:53:52 AM -22.2725 -46.3128 171° South 444 511 28,900 -1,437 Descending FlightAware ADS-B (SDAM)
Tue 06:54:23 AM -22.3336 -46.3026 171° South 438 504 28,100 -1,700 Descending FlightAware ADS-B (SDAM)
Tue 06:54:52 AM -22.3933 -46.2931 172° South 434 499 27,200 -1,831 Descending FlightAware ADS-B (SDAM)
Tue 06:55:22 AM -22.4523 -46.2887 178° South 427 491 26,300 -1,700 Descending FlightAware ADS-B (SDAM)
Tue 06:55:52 AM -22.5118 -46.2874 178° South 423 487 25,500 -1,700 Descending FlightAware ADS-B (SDAM)
Tue 06:56:22 AM -22.5706 -46.2864 178° South 420 483 24,600 -1,672 Descending FlightAware ADS-B (SDAM)
Tue 06:56:53 AM -22.6286 -46.2854 178° South 416 479 23,800 -1,700 Descending FlightAware ADS-B (SDAM)
Tue 06:57:22 AM -22.6856 -46.2844 179° South 412 474 22,900 -1,900 Descending FlightAware ADS-B (SDAM)
Tue 06:57:53 AM -22.7430 -46.2836 179° South 408 470 21,900 -1,800 Descending FlightAware ADS-B (SDAM)
Tue 06:58:22 AM -22.7990 -46.2828 179° South 407 468 21,100 -1,119 Descending FlightAware ADS-B (SDAM)
Tue 06:58:52 AM -22.8557 -46.2818 179° South 405 466 20,800 -1,377 Descending FlightAware ADS-B (SDAM)
Tue 06:59:23 AM -22.9134 -46.2810 179° South 417 480 19,700 -2,500 Descending FlightAware ADS-B (SDAM)
Tue 06:59:52 AM -22.9702 -46.2799 179° South 403 464 18,300 -2,644 Descending FlightAware ADS-B (SDAM)
Tue 07:00:22 AM -23.0238 -46.2792 178° South 375 432 17,100 -2,459 Descending FlightAware ADS-B (SDAM)
Tue 07:00:53 AM -23.0751 -46.2783 179° South 369 425 15,800 -2,500 Descending FlightAware ADS-B (SDAM)
Tue 07:01:22 AM -23.1258 -46.2775 178° South 366 421 14,600 -2,237 Descending FlightAware ADS-B (SDAM)
Tue 07:01:52 AM -23.1768 -46.2765 179° South 365 420 13,600 -1,574 Descending FlightAware ADS-B (SDAM)
Tue 07:02:23 AM -23.2266 -46.2765 185° South 362 417 13,000 -1,050 Descending FlightAware ADS-B (SDAM)
Tue 07:02:32 AM -23.2435 -46.2805 197° South 359 413 12,900 -947 Descending FlightAware ADS-B (SDAM)
Tue 07:02:42 AM -23.2582 -46.2878 210° Southwest 357 411 12,700 -1,429 Descending FlightAware ADS-B (SDAM)
Tue 07:02:53 AM -23.2717 -46.2988 222° Southwest 357 411 12,400 -1,800 Descending FlightAware ADS-B (SDAM)
Tue 07:03:02 AM -23.2824 -46.3125 235° Southwest 359 413 12,100 -1,895 Descending FlightAware ADS-B (SDAM)
Tue 07:03:12 AM -23.2900 -46.3285 246° West 358 412 11,800 -1,610 Descending FlightAware ADS-B (SDAM)
Tue 07:03:43 AM -23.3052 -46.3782 253° West 335 386 11,000 -1,500 Descending FlightAware ADS-B (SDAM)
Tue 07:04:12 AM -23.3181 -46.4239 254° West 312 359 10,300 -1,000 Descending FlightAware ADS-B (SDAM)
Tue 07:04:43 AM -23.3306 -46.4675 253° West 298 343 10,000 -667 Descending FlightAware ADS-B (SDAM)
Tue 07:04:57 AM -23.3367 -46.4884 253° West 298 343 9,800 -1,034 Descending FlightAware ADS-B (SDAM)
Tue 07:05:12 AM -23.3428 -46.5089 253° West 298 343 9,500 -1,200 Descending FlightAware ADS-B (SDAM)
Tue 07:05:27 AM -23.3486 -46.5308 258° West 290 334 9,200 -1,143 Descending FlightAware ADS-B (SDAM)
Tue 07:05:33 AM -23.3493 -46.5378 266° West 288 331 9,100 -1,091 Descending FlightAware ADS-B (SDAM)
Tue 07:05:38 AM -23.3492 -46.5449 273° West 285 328 9,000 -1,263 Descending FlightAware ADS-B (SDAM)
Tue 07:05:52 AM -23.3469 -46.5661 279° West 277 319 8,700 -1,000 Descending FlightAware ADS-B (SDAM)
Tue 07:06:08 AM -23.3440 -46.5862 279° West 269 310 8,500 -1,000 Descending FlightAware ADS-B (SDAM)
Tue 07:06:22 AM -23.3413 -46.6058 279° West 259 298 8,200 -1,034 Descending FlightAware ADS-B (SDAM)
Tue 07:06:37 AM -23.3390 -46.6240 276° West 248 285 8,000 -900 Descending FlightAware ADS-B (SDAM)
Tue 07:06:42 AM -23.3390 -46.6310 269° West 245 282 7,900 -1,200 Descending FlightAware ADS-B (SDAM)
Tue 07:06:47 AM -23.3397 -46.6365 261° West 242 278 7,800 -600 Descending FlightAware ADS-B (SDAM)
Tue 07:06:52 AM -23.3411 -46.6422 255° West 239 275 7,800 -900 Level FlightAware ADS-B (SDAM)
Tue 07:07:07 AM -23.3464 -46.6590 250° West 230 265 7,500 -1,000 Descending FlightAware ADS-B (SDAM)
Tue 07:07:22 AM -23.3519 -46.6749 250° West 223 257 7,300 -1,000 Descending FlightAware ADS-B (SDAM)
Tue 07:07:37 AM -23.3573 -46.6902 248° West 219 252 7,000 -1,200 Descending FlightAware ADS-B (SDAM)
Tue 07:07:42 AM -23.3597 -46.6951 242° Southwest 219 252 6,900 -1,200 Descending FlightAware ADS-B (SDAM)
Tue 07:07:47 AM -23.3626 -46.6992 232° Southwest 217 250 6,800 -1,200 Descending FlightAware ADS-B (SDAM)
Tue 07:07:52 AM -23.3666 -46.7030 219° Southwest 214 246 6,700 -1,200 Descending FlightAware ADS-B (SDAM)
Tue 07:07:57 AM -23.3703 -46.7052 208° Southwest 212 244 6,600 -1,091 Descending FlightAware ADS-B (SDAM)
Tue 07:08:03 AM -23.3757 -46.7071 196° South 209 241 6,500 -1,200 Descending FlightAware ADS-B (SDAM)
Tue 07:08:07 AM -23.3796 -46.7076 184° South 206 237 6,400 -1,200 Descending FlightAware ADS-B (SDAM)
Tue 07:08:13 AM -23.3852 -46.7070 172° South 203 234 6,300 -1,200 Descending FlightAware ADS-B (SDAM)
Tue 07:08:17 AM -23.3893 -46.7059 167° South 202 232 6,200 -1,263 Descending FlightAware ADS-B (SDAM)
Tue 07:08:32 AM -23.4027 -46.7012 161° South 203 234 5,900 -1,200 Descending FlightAware ADS-B (SDAM)
Tue 07:08:47 AM -23.4157 -46.6963 160° South 202 232 5,600 -1,200 Descending FlightAware ADS-B (SDAM)
Tue 07:09:02 AM -23.4290 -46.6913 160° South 200 230 5,300 -1,200 Descending FlightAware ADS-B (SDAM)
Tue 07:11:00 AM -23.4321 -46.4695 91° East  Level Estimated
Tue 07:12:00 AM -23.4321 -46.4695 137° Southeast  Level Estimated
Tue 07:13:00 AM -23.4321 -46.4695 137° Southeast  Level Estimated
Tue 07:14:00 AM -23.4321 -46.4695 137° Southeast  Level Estimated

Login

Don't have an account? Register now (free) for customized features, flight alerts, and more!